Time;durP1;ratioP1;P1;durP2;ratioP2;P2;SDS_P1;SDS_P2;PMS_P1;PMS_P2;Temp;Humidity;BMP_temperature;BMP_pressure;BME280_temperature;BME280_humidity;BME280_pressure;Samples;Min_cycle;Max_cycle;Signal;HPM_P1;HPM_P2
2023/08/23 00:00:16;;;;;;;;;1.00;1.00;;;;;29.55;87.07;101385.69;2119310;27;46757;-69
2023/08/23 00:01:16;;;;;;;;;2.67;2.67;;;;;29.55;87.46;101391.16;2122443;27;46954;-68
2023/08/23 00:02:17;;;;;;;;;1.67;1.67;;;;;29.55;86.99;101382.09;2121001;27;46837;-71
2023/08/23 00:03:17;;;;;;;;;1.00;1.00;;;;;29.54;87.32;101386.69;2121117;27;45691;-69
2023/08/23 00:04:19;;;;;;;;;2.00;2.00;;;;;29.56;87.26;101387.41;2122629;27;46336;-70
2023/08/23 00:05:19;;;;;;;;;2.00;2.00;;;;;29.54;86.77;101383.97;2123075;27;46094;-70
2023/08/23 00:06:19;;;;;;;;;2.00;2.00;;;;;29.55;87.21;101387.56;2119059;27;46755;-70
2023/08/23 00:07:20;;;;;;;;;1.67;1.67;;;;;29.52;87.33;101391.44;2113290;27;46756;-69
2023/08/23 00:08:20;;;;;;;;;2.00;2.00;;;;;29.51;87.00;101377.91;2105199;28;46152;-69
2023/08/23 00:09:20;;;;;;;;;1.00;1.00;;;;;29.51;86.92;101389.72;2104666;28;46473;-70
2023/08/23 00:10:21;;;;;;;;;2.00;2.00;;;;;29.53;86.49;101387.72;2116116;27;46645;-69
2023/08/23 00:11:21;;;;;;;;;1.33;1.33;;;;;29.54;86.61;101385.84;2123018;27;46539;-68
2023/08/23 00:12:22;;;;;;;;;2.00;2.00;;;;;29.52;86.92;101374.19;2113859;27;46395;-69
2023/08/23 00:13:22;;;;;;;;;2.00;2.00;;;;;29.51;86.61;101376.03;2113305;27;46402;-68
2023/08/23 00:14:23;;;;;;;;;2.00;2.00;;;;;29.52;86.66;101374.19;2121873;27;46882;-69
2023/08/23 00:15:23;;;;;;;;;1.00;1.00;;;;;29.52;86.88;101374.19;2122656;27;46864;-69
2023/08/23 00:16:23;;;;;;;;;0.00;0.00;;;;;29.51;86.73;101377.91;2122290;27;46483;-69
2023/08/23 00:17:24;;;;;;;;;2.00;2.00;;;;;29.52;86.43;101379.66;2122637;27;44930;-68
2023/08/23 00:18:24;;;;;;;;;2.00;2.00;;;;;29.52;86.38;101368.69;2122660;27;46114;-70
2023/08/23 00:19:24;;;;;;;;;3.00;2.00;;;;;29.52;86.37;101371.44;2122589;27;46494;-69
2023/08/23 00:20:24;;;;;;;;;1.00;1.00;;;;;29.52;86.40;101374.19;2122629;27;46670;-69
2023/08/23 00:21:25;;;;;;;;;1.00;1.00;;;;;29.52;86.38;101375.03;2121095;27;46674;-69
2023/08/23 00:22:25;;;;;;;;;1.00;1.00;;;;;29.53;86.04;101375.91;2114515;27;47073;-70
2023/08/23 00:23:26;;;;;;;;;3.00;3.00;;;;;29.52;85.76;101366.84;2117147;27;46612;-69
2023/08/23 00:24:26;;;;;;;;;4.33;3.00;;;;;29.52;85.76;101365.97;2122343;27;46693;-69
2023/08/23 00:25:26;;;;;;;;;1.00;1.00;;;;;29.50;85.73;101366.13;2121864;27;46426;-69
2023/08/23 00:26:28;;;;;;;;;0.67;0.67;;;;;29.49;85.99;101358.06;2122050;27;46333;-69
2023/08/23 00:27:28;;;;;;;;;2.00;2.00;;;;;29.49;85.60;101369.00;2122383;27;46450;-69
2023/08/23 00:28:28;;;;;;;;;3.00;2.00;;;;;29.47;86.00;101362.78;2122593;27;46641;-70
2023/08/23 00:29:29;;;;;;;;;3.00;2.00;;;;;29.46;85.10;101363.75;2122749;27;45947;-69
2023/08/23 00:30:29;;;;;;;;;3.00;2.00;;;;;29.44;85.34;101360.28;2122824;27;46324;-68
2023/08/23 00:31:29;;;;;;;;;2.00;2.00;;;;;29.43;85.60;101367.63;2119845;27;46477;-70
2023/08/23 00:32:29;;;;;;;;;3.67;2.00;;;;;29.42;85.25;101359.56;2113842;27;46526;-69
2023/08/23 00:33:30;;;;;;;;;3.33;1.00;;;;;29.40;85.60;101356.97;2114157;27;46095;-69
2023/08/23 00:34:30;;;;;;;;;2.00;2.00;;;;;29.41;84.92;101361.44;2114816;27;46541;-68
2023/08/23 00:35:30;;;;;;;;;2.00;2.00;;;;;29.40;84.73;101356.97;2122199;27;46558;-68
2023/08/23 00:36:31;;;;;;;;;2.00;2.00;;;;;29.41;84.89;101358.72;2122484;27;46955;-68
2023/08/23 00:37:31;;;;;;;;;2.67;2.67;;;;;29.42;85.21;101363.16;2121941;27;46609;-68
2023/08/23 00:38:32;;;;;;;;;1.67;1.67;;;;;29.41;85.24;101350.50;2114582;27;46027;-70
2023/08/23 00:39:32;;;;;;;;;1.00;1.00;;;;;29.42;84.62;101352.22;2116031;27;46266;-69
2023/08/23 00:40:33;;;;;;;;;1.67;1.00;;;;;29.44;85.23;101355.69;2122443;27;46274;-68
2023/08/23 00:41:33;;;;;;;;;1.00;1.00;;;;;29.43;85.08;101350.34;2122508;27;46021;-68
2023/08/23 00:42:33;;;;;;;;;2.00;2.00;;;;;29.41;84.59;101341.44;2121956;27;46705;-67
2023/08/23 00:43:34;;;;;;;;;2.00;2.00;;;;;29.40;84.59;101343.31;2122556;27;46380;-69
2023/08/23 00:44:34;;;;;;;;;4.00;3.00;;;;;29.40;84.27;101335.09;2121923;27;46574;-68
2023/08/23 00:45:38;;;;;;;;;2.00;2.00;;;;;29.39;84.55;101336.13;2122465;27;46790;-68
2023/08/23 00:46:39;;;;;;;;;1.00;1.00;;;;;29.38;84.32;101334.38;2122360;27;45656;-69
2023/08/23 00:47:39;;;;;;;;;1.25;1.25;;;;;29.36;84.24;101330.06;2119192;27;46838;-69
2023/08/23 00:48:41;;;;;;;;;2.33;2.33;;;;;29.35;84.11;101331.94;2114645;27;46339;-68
2023/08/23 00:49:41;;;;;;;;;1.00;1.00;;;;;29.34;84.39;101335.66;2121491;27;46337;-69
2023/08/23 00:50:43;;;;;;;;;0.00;0.00;;;;;29.28;84.17;101326.16;2119917;27;46144;-68
2023/08/23 00:51:44;;;;;;;;;3.75;3.00;;;;;29.36;84.18;101330.06;2114025;27;46713;-70
2023/08/23 00:52:44;;;;;;;;;1.00;1.00;;;;;29.34;84.25;101330.19;2115364;27;46194;-67
2023/08/23 00:53:46;;;;;;;;;1.67;1.67;;;;;29.32;84.22;101326.72;2108567;27;45438;-68
2023/08/23 00:54:46;;;;;;;;;2.00;2.00;;;;;29.29;83.94;101330.59;2113060;27;46638;-69
2023/08/23 00:55:48;;;;;;;;;2.00;2.00;;;;;29.30;84.00;101335.06;2121959;27;46783;-69
2023/08/23 00:56:49;;;;;;;;;1.25;1.25;;;;;29.29;83.92;101327.88;2122997;27;45833;-69
2023/08/23 00:57:51;;;;;;;;;2.00;2.00;;;;;29.28;84.23;101325.28;2122616;27;46554;-69
2023/08/23 00:58:52;;;;;;;;;3.00;2.00;;;;;29.29;84.03;101327.88;2122465;27;46335;-69
2023/08/23 00:59:52;;;;;;;;;2.00;2.00;;;;;29.27;83.97;101320.81;2104040;27;46236;-68
2023/08/23 01:00:54;;;;;;;;;2.00;2.00;;;;;29.28;83.73;101323.41;2110535;27;46292;-69
2023/08/23 01:01:55;;;;;;;;;1.50;1.50;;;;;29.28;83.96;101325.28;2122213;27;47039;-69
2023/08/23 01:02:56;;;;;;;;;2.50;2.00;;;;;29.28;83.83;101328.88;2121841;27;46911;-69
2023/08/23 01:03:57;;;;;;;;;2.00;2.00;;;;;29.26;84.00;101313.63;2121226;27;46484;-70
2023/08/23 01:04:57;;;;;;;;;3.50;2.00;;;;;29.26;83.71;101322.69;2122544;27;45695;-68
2023/08/23 01:06:16;;;;;;;;;1.67;1.33;;;;;29.25;83.85;101328.31;2119856;27;46569;-69
2023/08/23 01:07:30;;;;;;;;;1.00;1.00;;;;;29.23;84.14;101325.72;2118804;27;46342;-69
2023/08/23 01:09:03;;;;;;;;;1.75;1.50;;;;;29.23;84.25;101325.72;2122447;27;46681;-68
2023/08/23 01:10:12;;;;;;;;;2.50;2.50;;;;;29.21;84.37;101322.22;2111785;27;46429;-68
2023/08/23 01:11:40;;;;;;;;;2.00;1.25;;;;;29.21;83.92;101315.91;2105982;27;46602;-69
2023/08/23 01:12:55;;;;;;;;;1.00;1.00;;;;;29.20;83.97;101317.75;2115955;27;46311;-70
2023/08/23 01:14:22;;;;;;;;;1.50;1.50;;;;;29.18;83.90;101318.91;2122505;27;46567;-68
2023/08/23 01:15:24;;;;;;;;;4.00;2.50;;;;;29.16;84.09;101315.47;2121713;27;46471;-69
2023/08/23 01:16:25;;;;;;;;;2.00;2.00;;;;;29.17;84.09;101317.19;2121974;27;46441;-69
2023/08/23 01:17:27;;;;;;;;;2.50;2.50;;;;;29.18;84.20;101318.91;2122204;27;46723;-69
2023/08/23 01:18:28;;;;;;;;;2.00;2.00;;;;;29.16;84.08;101321.78;2122163;27;46973;-68
2023/08/23 01:19:48;;;;;;;;;2.50;1.50;;;;;29.19;84.13;101316.03;2121988;27;47791;-68
2023/08/23 01:20:52;;;;;;;;;3.00;2.25;;;;;29.18;83.96;101317.03;2122489;27;46414;-68
2023/08/23 01:21:56;;;;;;;;;2.25;2.25;;;;;29.13;85.09;101313.88;2121976;27;46659;-69
2023/08/23 01:23:12;;;;;;;;;2.75;2.75;;;;;29.15;84.25;101314.59;2120464;27;46340;-69
2023/08/23 01:24:13;;;;;;;;;2.50;1.75;;;;;29.12;84.29;101316.75;2113628;27;46545;-70
2023/08/23 01:25:14;;;;;;;;;2.00;2.00;;;;;29.12;84.51;101312.16;2121025;27;46365;-70
2023/08/23 01:26:14;;;;;;;;;0.25;0.25;;;;;29.10;84.73;101318.75;2112781;27;45436;-70
2023/08/23 01:27:18;;;;;;;;;1.00;1.00;;;;;29.12;84.41;101314.03;2112440;27;46023;-69
2023/08/23 01:28:19;;;;;;;;;3.25;3.00;;;;;29.13;84.45;101315.75;2121804;27;46619;-68
2023/08/23 01:29:20;;;;;;;;;2.25;1.75;;;;;29.11;84.41;101312.28;2120881;27;46722;-67
2023/08/23 01:30:21;;;;;;;;;1.67;1.33;;;;;29.12;84.64;101316.75;2113535;27;45923;-68
2023/08/23 01:31:23;;;;;;;;;1.00;1.00;;;;;29.12;84.58;101314.88;2118532;27;46539;-68
2023/08/23 01:32:30;;;;;;;;;1.25;1.25;;;;;29.13;84.68;101316.63;2122003;27;45228;-68
2023/08/23 01:33:37;;;;;;;;;1.25;1.25;;;;;29.13;84.57;101313.00;2121447;27;46245;-69
2023/08/23 01:34:43;;;;;;;;;1.50;1.50;;;;;29.12;84.56;101317.63;2122136;27;46807;-69
2023/08/23 01:36:10;;;;;;;;;1.00;1.00;;;;;29.09;84.39;101322.47;2120795;27;46285;-69
2023/08/23 01:37:11;;;;;;;;;0.75;0.75;;;;;29.10;84.80;101318.75;2113549;27;46445;-69
2023/08/23 01:38:15;;;;;;;;;1.00;1.00;;;;;29.11;84.71;101323.22;2121428;27;46104;-70
2023/08/23 01:39:16;;;;;;;;;2.00;2.00;;;;;29.10;84.66;101322.38;2121932;27;46090;-68
2023/08/23 01:40:17;;;;;;;;;1.00;1.00;;;;;29.09;84.86;101317.88;2122198;27;47366;-69
2023/08/23 01:41:18;;;;;;;;;1.00;1.00;;;;;29.08;84.67;101321.59;2121632;27;46973;-69
2023/08/23 01:42:21;;;;;;;;;1.50;1.50;;;;;29.08;85.02;101321.59;2121971;27;46451;-69
2023/08/23 01:43:22;;;;;;;;;0.50;0.50;;;;;29.08;84.97;101318.00;2122166;27;46517;-68
2023/08/23 01:44:22;;;;;;;;;2.00;2.00;;;;;29.07;84.74;101324.47;2121643;27;46360;-69
2023/08/23 01:45:22;;;;;;;;;0.00;0.00;;;;;29.07;84.87;101325.34;2120423;27;46460;-69
2023/08/23 01:46:23;;;;;;;;;1.00;1.00;;;;;29.07;84.90;101329.94;2121844;27;46740;-70
2023/08/23 01:47:23;;;;;;;;;1.00;1.00;;;;;29.06;84.90;101322.75;2121735;27;46542;-68
2023/08/23 01:48:23;;;;;;;;;1.67;1.67;;;;;29.07;85.03;101313.56;2122134;27;46272;-69
2023/08/23 01:49:24;;;;;;;;;1.67;1.67;;;;;29.07;84.95;101324.47;2121866;27;46512;-68
2023/08/23 01:50:24;;;;;;;;;2.33;2.33;;;;;29.07;84.68;101319.03;2121309;27;46409;-69
2023/08/23 01:51:24;;;;;;;;;3.00;2.33;;;;;29.05;85.00;101321.91;2113244;27;46616;-68
2023/08/23 01:52:25;;;;;;;;;3.33;3.33;;;;;29.05;85.14;101326.50;2119468;27;46742;-69
2023/08/23 01:53:25;;;;;;;;;2.67;2.67;;;;;29.04;85.40;101317.44;2121862;27;46254;-68
2023/08/23 01:54:26;;;;;;;;;2.67;2.67;;;;;29.02;85.37;101319.44;2121751;27;46291;-68
2023/08/23 01:55:26;;;;;;;;;2.67;2.67;;;;;29.00;85.21;101319.59;2121751;27;46809;-68
2023/08/23 01:56:26;;;;;;;;;2.00;2.00;;;;;29.01;85.43;101318.59;2121073;27;46629;-69
2023/08/23 01:57:26;;;;;;;;;2.00;2.00;;;;;29.01;85.26;101314.97;2112579;27;46644;-69
2023/08/23 01:58:27;;;;;;;;;3.00;3.00;;;;;29.01;85.14;101312.25;2113026;27;46892;-69
2023/08/23 01:59:28;;;;;;;;;3.33;3.33;;;;;29.00;85.26;101310.53;2121877;27;46601;-69
2023/08/23 02:00:28;;;;;;;;;5.33;4.33;;;;;28.97;85.76;101306.22;2119181;27;46300;-69
2023/08/23 02:01:28;;;;;;;;;4.00;4.00;;;;;28.96;85.20;101309.03;2116926;27;46329;-69
2023/08/23 02:02:29;;;;;;;;;3.00;3.00;;;;;28.92;85.61;101313.94;2119704;27;46371;-69
2023/08/23 02:03:29;;;;;;;;;3.00;3.00;;;;;28.91;85.72;101312.22;2122694;27;46412;-67
2023/08/23 02:04:29;;;;;;;;;3.00;3.00;;;;;28.89;85.59;101307.88;2117409;27;46359;-68
2023/08/23 02:05:30;;;;;;;;;3.00;3.00;;;;;28.87;85.89;101312.59;2108528;27;46634;-68
2023/08/23 02:06:30;;;;;;;;;3.33;3.33;;;;;28.85;86.02;101307.28;2117677;27;46842;-68
2023/08/23 02:07:31;;;;;;;;;4.33;4.33;;;;;28.85;85.88;101310.00;2112811;27;46099;-68
2023/08/23 02:08:31;;;;;;;;;3.67;3.67;;;;;28.87;85.76;101307.13;2114942;27;46734;-69
2023/08/23 02:09:33;;;;;;;;;2.00;2.00;;;;;28.86;85.87;101306.28;2113751;27;47033;-69
2023/08/23 02:10:33;;;;;;;;;6.00;3.50;;;;;28.86;85.91;101308.13;2110229;27;46349;-68
2023/08/23 02:11:36;;;;;;;;;3.00;3.00;;;;;28.85;85.81;101310.00;2112451;27;45368;-68
2023/08/23 02:12:36;;;;;;;;;3.50;3.00;;;;;28.83;85.89;101309.25;2121443;27;46358;-68
2023/08/23 02:13:37;;;;;;;;;4.67;4.33;;;;;28.81;86.05;101308.53;2112504;27;46687;-69
2023/08/23 02:14:38;;;;;;;;;4.00;4.00;;;;;28.79;86.06;101307.81;2112841;27;47210;-68
2023/08/23 02:15:38;;;;;;;;;5.00;4.33;;;;;28.78;86.73;101297.00;2121180;27;47208;-68
2023/08/23 02:16:39;;;;;;;;;4.00;4.00;;;;;28.77;86.37;101298.03;2119674;27;46861;-70
2023/08/23 02:17:39;;;;;;;;;4.00;4.00;;;;;28.77;86.47;101298.88;2113541;27;45991;-68
2023/08/23 02:18:39;;;;;;;;;5.00;5.00;;;;;28.75;86.28;101297.28;2117144;27;46401;-69
2023/08/23 02:19:40;;;;;;;;;4.00;4.00;;;;;28.74;86.32;101293.69;2112507;27;46215;-69
2023/08/23 02:20:40;;;;;;;;;4.00;4.00;;;;;28.74;86.49;101293.69;2112700;27;46114;-69
2023/08/23 02:21:40;;;;;;;;;3.00;3.00;;;;;28.72;86.45;101292.97;2121851;27;46484;-69
2023/08/23 02:22:41;;;;;;;;;3.33;3.33;;;;;28.72;86.42;101292.97;2121287;27;46287;-70
2023/08/23 02:23:41;;;;;;;;;4.67;4.00;;;;;28.70;86.30;101294.97;2122034;27;46175;-68
2023/08/23 02:24:41;;;;;;;;;5.00;4.00;;;;;28.68;86.14;101294.22;2121485;27;46443;-69
2023/08/23 02:25:42;;;;;;;;;6.67;6.33;;;;;28.68;86.53;101288.75;2121389;27;46821;-68
2023/08/23 02:26:42;;;;;;;;;6.67;5.00;;;;;28.65;86.64;101289.06;2118258;27;46277;-69
2023/08/23 02:27:43;;;;;;;;;4.33;4.33;;;;;28.65;86.93;101291.78;2113833;27;46195;-69
2023/08/23 02:28:43;;;;;;;;;3.00;3.00;;;;;28.63;87.00;101293.78;2121374;27;46426;-70
2023/08/23 02:29:43;;;;;;;;;5.00;4.00;;;;;28.64;86.94;101290.91;2118319;27;46256;-69
2023/08/23 02:30:44;;;;;;;;;4.00;4.00;;;;;28.63;86.63;101289.19;2112990;27;46215;-69
2023/08/23 02:31:44;;;;;;;;;4.00;4.00;;;;;28.59;86.92;101293.19;2120052;27;46491;-69
2023/08/23 02:32:45;;;;;;;;;3.00;3.00;;;;;28.59;86.91;101290.47;2121707;27;46729;-69
2023/08/23 02:33:45;;;;;;;;;4.00;4.00;;;;;28.58;87.12;101294.16;2112584;27;46550;-68
2023/08/23 02:34:46;;;;;;;;;4.00;4.00;;;;;28.61;87.33;101293.06;2102883;28;46266;-68
2023/08/23 02:35:47;;;;;;;;;5.00;3.67;;;;;28.59;87.14;101292.34;2112590;27;47209;-69
2023/08/23 02:36:47;;;;;;;;;5.67;4.33;;;;;28.60;87.22;101291.34;2121958;27;46919;-69
2023/08/23 02:37:47;;;;;;;;;4.00;3.00;;;;;28.61;87.25;101293.94;2119654;27;46461;-70
2023/08/23 02:38:47;;;;;;;;;3.33;3.00;;;;;28.61;87.63;101290.34;2113348;27;45138;-69
2023/08/23 02:39:48;;;;;;;;;6.00;4.33;;;;;28.61;87.46;101290.34;2119997;27;46604;-67
2023/08/23 02:40:48;;;;;;;;;4.00;4.00;;;;;28.60;87.25;101288.59;2119864;27;46805;-69
2023/08/23 02:41:48;;;;;;;;;5.33;4.33;;;;;28.59;87.49;101292.34;2112782;27;46639;-68
2023/08/23 02:42:49;;;;;;;;;4.67;3.33;;;;;28.59;87.15;101286.88;2115076;27;46794;-68
2023/08/23 02:43:49;;;;;;;;;3.00;2.00;;;;;28.56;87.10;101281.66;2113024;27;46366;-67
2023/08/23 02:44:50;;;;;;;;;5.67;4.00;;;;;28.55;87.28;101288.13;2121620;27;46780;-68
2023/08/23 02:45:50;;;;;;;;;4.67;4.67;;;;;28.54;87.57;101291.84;2121646;27;46441;-69
2023/08/23 02:46:50;;;;;;;;;4.00;4.00;;;;;28.53;87.60;101293.72;2122098;27;46574;-69
2023/08/23 02:47:50;;;;;;;;;2.33;2.33;;;;;28.55;87.77;101293.59;2121413;27;46594;-70
2023/08/23 02:48:51;;;;;;;;;4.00;4.00;;;;;28.52;87.90;101292.00;2120852;27;46561;-70
2023/08/23 02:49:51;;;;;;;;;5.00;5.00;;;;;28.55;87.61;101301.78;2121643;27;46394;-69
2023/08/23 02:50:52;;;;;;;;;9.00;7.33;;;;;28.54;87.52;101298.19;2115718;27;45441;-68
2023/08/23 02:51:52;;;;;;;;;9.33;8.00;;;;;28.53;87.47;101292.88;2105805;27;46239;-68
2023/08/23 02:52:52;;;;;;;;;9.33;9.33;;;;;28.52;87.63;101292.00;2115996;27;46303;-68
2023/08/23 02:53:53;;;;;;;;;11.33;11.00;;;;;28.51;87.77;101293.00;2119143;27;47188;-68
2023/08/23 02:54:53;;;;;;;;;10.75;10.75;;;;;28.52;87.80;101291.13;2112580;27;46622;-68
2023/08/23 02:55:53;;;;;;;;;13.75;12.75;;;;;28.51;87.76;101282.09;2120965;27;46565;-67
2023/08/23 02:56:54;;;;;;;;;13.50;10.75;;;;;28.51;87.68;101293.00;2121753;27;46182;-68
2023/08/23 02:57:55;;;;;;;;;13.00;11.67;;;;;28.49;87.87;101288.69;2118694;27;46594;-68
2023/08/23 02:58:55;;;;;;;;;6.75;5.00;;;;;28.47;88.04;101282.50;2112374;27;46583;-68
2023/08/23 02:59:55;;;;;;;;;12.50;11.75;;;;;28.46;88.03;101288.94;2104334;28;46394;-69
2023/08/23 03:00:56;;;;;;;;;14.50;13.00;;;;;28.42;88.10;101291.06;2112415;27;46658;-67
2023/08/23 03:01:56;;;;;;;;;15.25;13.50;;;;;28.37;88.55;101291.50;2121241;27;46365;-68
2023/08/23 03:02:56;;;;;;;;;14.50;13.50;;;;;28.36;88.63;101294.34;2112532;27;46695;-68
2023/08/23 03:03:57;;;;;;;;;13.25;13.25;;;;;28.36;88.58;101299.81;2111823;27;46772;-70
2023/08/23 03:04:57;;;;;;;;;14.25;14.25;;;;;28.34;88.56;101302.69;2121592;27;46419;-69
2023/08/23 03:05:57;;;;;;;;;13.75;13.75;;;;;28.36;88.89;101297.09;2115782;27;46358;-68
2023/08/23 03:06:58;;;;;;;;;27.25;25.50;;;;;28.36;88.83;101292.50;2119871;27;46462;-68
2023/08/23 03:07:58;;;;;;;;;23.00;21.00;;;;;28.37;88.63;101301.53;2122379;27;46594;-68
2023/08/23 03:08:58;;;;;;;;;18.75;16.75;;;;;28.35;88.57;101298.94;2123810;27;45844;-69
2023/08/23 03:09:59;;;;;;;;;19.50;16.00;;;;;28.35;88.77;101290.75;2113998;27;46372;-69
2023/08/23 03:11:03;;;;;;;;;14.33;14.33;;;;;28.36;89.10;101291.63;2113270;27;45737;-69
2023/08/23 03:12:04;;;;;;;;;14.50;13.75;;;;;28.35;89.11;101292.63;2119232;27;46510;-68
2023/08/23 03:13:04;;;;;;;;;9.67;9.67;;;;;28.36;88.65;101294.34;2122423;27;46573;-68
2023/08/23 03:14:05;;;;;;;;;10.33;10.00;;;;;28.34;88.89;101294.50;2114235;27;46297;-68
2023/08/23 03:15:06;;;;;;;;;10.00;8.67;;;;;28.37;89.06;101290.63;2117959;27;46688;-68
2023/08/23 03:16:06;;;;;;;;;7.25;7.25;;;;;28.36;88.85;101291.63;2122878;27;46287;-68
2023/08/23 03:17:06;;;;;;;;;6.00;6.00;;;;;28.36;88.79;101297.94;2113340;27;46094;-70
2023/08/23 03:18:07;;;;;;;;;5.00;4.00;;;;;28.36;88.79;101297.09;2113671;27;46695;-68
2023/08/23 03:19:08;;;;;;;;;4.67;4.00;;;;;28.33;88.82;101292.75;2122896;27;45816;-68
2023/08/23 03:20:08;;;;;;;;;4.00;3.67;;;;;28.36;88.97;101300.69;2114550;27;46149;-68
2023/08/23 03:21:08;;;;;;;;;4.00;4.00;;;;;28.37;88.76;101302.41;2114108;27;46755;-69
2023/08/23 03:22:09;;;;;;;;;4.00;2.00;;;;;28.37;88.69;101294.22;2116637;27;46135;-69
2023/08/23 03:23:09;;;;;;;;;4.00;4.00;;;;;28.35;88.70;101290.75;2112401;27;46273;-69
2023/08/23 03:24:09;;;;;;;;;2.67;2.67;;;;;28.36;88.65;101297.09;2114072;27;45907;-69
2023/08/23 03:25:10;;;;;;;;;0.00;0.00;;;;;28.34;88.99;101290.91;2113788;27;46469;-69
2023/08/23 03:26:10;;;;;;;;;2.33;2.00;;;;;28.33;88.66;101289.13;2121494;27;46313;-69
2023/08/23 03:27:10;;;;;;;;;5.00;4.00;;;;;28.32;88.63;101290.13;2122834;27;46585;-68
2023/08/23 03:28:12;;;;;;;;;3.00;3.00;;;;;28.32;88.80;101293.72;2122626;27;46585;-69
2023/08/23 03:29:12;;;;;;;;;3.75;3.75;;;;;28.32;89.07;101292.88;2123042;27;45335;-68
2023/08/23 03:30:13;;;;;;;;;4.00;3.67;;;;;28.32;88.86;101291.00;2115017;27;46576;-70
2023/08/23 03:31:13;;;;;;;;;3.00;3.00;;;;;28.33;88.90;101292.75;2117244;27;46281;-69
2023/08/23 03:32:14;;;;;;;;;3.33;3.33;;;;;28.33;88.76;101286.41;2122612;27;46261;-69
2023/08/23 03:33:15;;;;;;;;;3.75;3.75;;;;;28.33;88.70;101280.94;2120551;27;46783;-69
2023/08/23 03:34:15;;;;;;;;;2.33;2.33;;;;;28.32;88.51;101285.53;2115454;27;46442;-69
2023/08/23 03:35:16;;;;;;;;;4.33;3.33;;;;;28.31;88.73;101280.22;2115440;27;46301;-70
2023/08/23 03:36:16;;;;;;;;;3.00;3.00;;;;;28.31;88.87;101282.94;2119288;27;46246;-70
2023/08/23 03:37:16;;;;;;;;;4.00;2.67;;;;;28.30;88.83;101281.22;2122654;27;46358;-70
2023/08/23 03:38:17;;;;;;;;;3.67;3.67;;;;;28.31;89.14;101286.53;2116780;27;46736;-70
2023/08/23 03:39:17;;;;;;;;;4.00;2.00;;;;;28.31;89.28;101278.34;2108215;27;46987;-69
2023/08/23 03:40:18;;;;;;;;;1.00;0.00;;;;;28.29;89.26;101282.22;2113959;27;46874;-70
2023/08/23 03:41:18;;;;;;;;;3.00;3.00;;;;;28.30;89.13;101279.38;2115481;27;46497;-69
2023/08/23 03:42:18;;;;;;;;;2.00;2.00;;;;;28.29;88.97;101277.63;2105830;27;46547;-69
2023/08/23 03:43:19;;;;;;;;;2.33;2.33;;;;;28.29;88.97;101282.22;2104992;28;46404;-70
2023/08/23 03:44:19;;;;;;;;;2.00;1.00;;;;;28.28;89.04;101281.38;2113775;27;46185;-70
2023/08/23 03:45:19;;;;;;;;;2.00;2.00;;;;;28.28;89.06;101277.78;2122959;27;46166;-70
2023/08/23 03:46:23;;;;;;;;;3.67;1.33;;;;;28.28;89.02;101275.91;2122509;27;46908;-69
2023/08/23 03:47:24;;;;;;;;;3.75;2.25;;;;;28.28;89.04;101272.31;2122388;27;46796;-70
2023/08/23 03:48:24;;;;;;;;;0.00;0.00;;;;;28.27;89.21;101271.44;2123367;27;45934;-68
2023/08/23 03:49:24;;;;;;;;;3.33;2.33;;;;;28.27;89.01;101271.44;2122519;27;46992;-68
2023/08/23 03:50:25;;;;;;;;;2.67;2.67;;;;;28.25;88.95;101273.41;2122415;27;46403;-70
2023/08/23 03:51:25;;;;;;;;;2.00;2.00;;;;;28.22;89.11;101272.84;2122706;27;46222;-70
2023/08/23 03:52:25;;;;;;;;;2.00;2.00;;;;;28.21;89.10;101271.97;2122728;27;46917;-70
2023/08/23 03:53:26;;;;;;;;;1.00;1.00;;;;;28.15;89.19;101267.88;2122894;27;46404;-69
2023/08/23 03:54:26;;;;;;;;;2.00;2.00;;;;;28.14;89.10;101270.75;2122772;27;45401;-69
2023/08/23 03:55:27;;;;;;;;;1.33;1.33;;;;;28.15;89.10;101267.88;2122681;27;46947;-69
2023/08/23 03:56:27;;;;;;;;;2.67;2.67;;;;;28.14;89.69;101279.81;2116302;27;46872;-69
2023/08/23 03:57:27;;;;;;;;;2.00;2.00;;;;;28.13;89.41;101283.53;2109056;27;46383;-69
2023/08/23 03:58:27;;;;;;;;;2.00;2.00;;;;;28.11;89.45;101274.63;2113486;27;46544;-69
2023/08/23 03:59:28;;;;;;;;;2.00;1.33;;;;;28.11;89.54;101277.34;2122441;27;46641;-69
2023/08/23 04:00:28;;;;;;;;;3.00;3.00;;;;;28.10;89.77;101278.34;2119305;27;46318;-67
2023/08/23 04:01:28;;;;;;;;;1.00;1.00;;;;;28.08;89.67;101283.09;2120525;27;46286;-68
2023/08/23 04:02:29;;;;;;;;;1.00;1.00;;;;;28.08;89.60;101287.69;2113444;27;46649;-69
2023/08/23 04:03:29;;;;;;;;;2.00;2.00;;;;;28.07;90.08;101284.06;2113575;27;46264;-69
2023/08/23 04:04:29;;;;;;;;;2.00;2.00;;;;;28.05;89.72;101283.31;2113578;27;46476;-68
2023/08/23 04:05:30;;;;;;;;;2.00;2.00;;;;;28.04;89.89;101280.72;2114082;27;47034;-70
2023/08/23 04:06:30;;;;;;;;;4.00;2.33;;;;;28.02;90.02;101290.91;2122462;27;46469;-68
2023/08/23 04:07:31;;;;;;;;;1.00;1.00;;;;;28.01;90.30;101283.72;2122940;27;46619;-69
2023/08/23 04:08:31;;;;;;;;;4.33;4.33;;;;;27.97;90.13;101288.59;2122676;27;46370;-69
2023/08/23 04:09:31;;;;;;;;;3.00;3.00;;;;;27.98;90.40;101292.19;2113683;27;46295;-69
2023/08/23 04:10:32;;;;;;;;;3.67;3.67;;;;;27.98;90.58;101289.47;2112975;27;46355;-69
2023/08/23 04:11:33;;;;;;;;;4.00;2.33;;;;;27.96;90.32;101292.31;2123007;27;46266;-67
2023/08/23 04:12:33;;;;;;;;;3.33;2.33;;;;;27.96;90.37;101292.31;2123174;27;45649;-68
2023/08/23 04:13:33;;;;;;;;;1.00;1.00;;;;;27.97;90.40;101290.47;2117481;27;46422;-70
2023/08/23 04:14:35;;;;;;;;;5.33;3.67;;;;;27.96;90.74;101289.59;2114184;27;45996;-70
2023/08/23 04:15:35;;;;;;;;;5.75;5.50;;;;;27.97;90.50;101299.50;2119354;27;46854;-70
2023/08/23 04:16:36;;;;;;;;;4.00;4.00;;;;;27.96;90.65;101300.50;2122512;27;46206;-70
2023/08/23 04:17:36;;;;;;;;;5.00;4.00;;;;;27.95;90.83;101290.59;2122167;27;46710;-69
2023/08/23 04:18:36;;;;;;;;;6.33;5.00;;;;;27.97;90.31;101302.22;2122302;27;46158;-68
2023/08/23 04:19:37;;;;;;;;;4.00;4.00;;;;;27.94;90.70;101297.00;2121505;27;46265;-68
2023/08/23 04:20:37;;;;;;;;;3.67;3.67;;;;;27.93;90.96;101295.28;2122692;27;46226;-69
2023/08/23 04:21:38;;;;;;;;;3.00;3.00;;;;;27.91;90.73;101293.69;2113113;27;46352;-70
2023/08/23 04:22:38;;;;;;;;;3.00;3.00;;;;;27.91;90.46;101296.41;2113692;27;46569;-70
2023/08/23 04:23:38;;;;;;;;;3.33;3.33;;;;;27.89;90.88;101299.28;2122511;27;46846;-69
2023/08/23 04:24:39;;;;;;;;;4.00;4.00;;;;;27.90;91.02;101300.16;2123266;27;45569;-70
2023/08/23 04:25:39;;;;;;;;;5.00;5.00;;;;;27.94;90.36;101297.00;2114684;27;46135;-68
2023/08/23 04:26:39;;;;;;;;;5.00;5.00;;;;;27.95;90.58;101296.03;2122233;27;45989;-69
2023/08/23 04:27:40;;;;;;;;;2.00;2.00;;;;;27.96;90.52;101291.47;2112972;27;46866;-69
2023/08/23 04:28:40;;;;;;;;;3.67;3.00;;;;;27.94;90.64;101288.84;2107415;27;46252;-70
2023/08/23 04:29:40;;;;;;;;;3.00;3.00;;;;;27.94;90.34;101288.84;2117478;27;46433;-70
2023/08/23 04:30:42;;;;;;;;;5.00;5.00;;;;;27.94;90.71;101287.97;2122484;27;45955;-69
2023/08/23 04:31:43;;;;;;;;;4.00;4.00;;;;;27.91;90.61;101286.38;2122980;27;46368;-69
2023/08/23 04:32:43;;;;;;;;;4.00;4.00;;;;;27.91;90.63;101286.38;2103999;28;46324;-70
2023/08/23 04:33:44;;;;;;;;;6.00;4.33;;;;;27.93;90.75;101283.50;2104239;28;46842;-70
2023/08/23 04:34:44;;;;;;;;;3.00;3.00;;;;;27.93;90.71;101292.56;2122531;27;46595;-70
2023/08/23 04:35:44;;;;;;;;;3.00;3.00;;;;;27.90;90.71;101292.84;2122456;27;46374;-71
2023/08/23 04:36:45;;;;;;;;;4.67;4.00;;;;;27.91;90.73;101293.69;2120668;27;46137;-69
2023/08/23 04:37:45;;;;;;;;;3.00;3.00;;;;;27.89;90.88;101288.38;2121057;27;45013;-70
2023/08/23 04:38:45;;;;;;;;;3.67;3.67;;;;;27.88;91.12;101283.06;2105172;28;46240;-68
2023/08/23 04:39:46;;;;;;;;;3.00;3.00;;;;;27.87;91.09;101290.38;2111519;27;46502;-70
2023/08/23 04:40:47;;;;;;;;;3.00;3.00;;;;;27.89;90.78;101298.41;2120765;27;46204;-69
2023/08/23 04:41:47;;;;;;;;;3.00;3.00;;;;;27.87;90.91;101286.78;2113271;27;46202;-70
2023/08/23 04:42:47;;;;;;;;;3.00;2.00;;;;;27.85;91.56;101292.38;2113182;27;46772;-70
2023/08/23 04:43:48;;;;;;;;;4.00;3.00;;;;;27.81;91.41;101289.00;2122539;27;46700;-69
2023/08/23 04:44:48;;;;;;;;;2.00;2.00;;;;;27.78;91.24;101292.00;2117401;27;46850;-70